Time;durP1;ratioP1;P1;durP2;ratioP2;P2;SDS_P1;SDS_P2;PMS_P1;PMS_P2;Temp;Humidity;BMP_temperature;BMP_pressure;BME280_temperature;BME280_humidity;BME280_pressure;Samples;Min_cycle;Max_cycle;Signal;HPM_P1;HPM_P2
2022/06/11 00:00:44;;;;;;;21.97;11.03;;;;;;;;;;5093884;28;20473;-72
2022/06/11 00:03:12;;;;;;;23.97;11.73;;;;;;;;;;5093684;28;20450;-73
2022/06/11 00:05:40;;;;;;;24.60;9.77;;;;;;;;;;5093831;28;20437;-74
2022/06/11 00:08:08;;;;;;;24.63;10.00;;;;;;;;;;5093816;28;20442;-72
2022/06/11 00:10:37;;;;;;;22.47;11.23;;;;;;;;;;5093773;28;20946;-72
2022/06/11 00:13:05;;;;;;;22.37;10.07;;;;;;;;;;5093315;28;20565;-72
2022/06/11 00:15:32;;;;;;;24.07;10.20;;;;;;;;;;5093716;28;20449;-72
2022/06/11 00:18:00;;;;;;;23.80;11.37;;;;;;;;;;5093796;28;20437;-73
2022/06/11 00:20:30;;;;;;;24.90;11.20;;;;;;;;;;5093768;28;20441;-73
2022/06/11 00:22:58;;;;;;;25.03;11.00;;;;;;;;;;5093767;28;20426;-72
2022/06/11 00:25:27;;;;;;;34.40;13.40;;;;;;;;;;5093485;28;20533;-72
2022/06/11 00:27:56;;;;;;;30.10;12.13;;;;;;;;;;5093405;28;20433;-72
2022/06/11 00:30:23;;;;;;;28.03;11.40;;;;;;;;;;5093611;28;20442;-73
2022/06/11 00:32:51;;;;;;;24.07;10.33;;;;;;;;;;5093292;28;20486;-72
2022/06/11 00:35:18;;;;;;;24.73;11.80;;;;;;;;;;5093138;28;20441;-73
2022/06/11 00:37:46;;;;;;;23.10;11.07;;;;;;;;;;5093234;28;20449;-73
2022/06/11 00:40:15;;;;;;;28.87;10.43;;;;;;;;;;5092776;28;20442;-73
2022/06/11 00:42:42;;;;;;;22.07;9.50;;;;;;;;;;5093367;28;20441;-72
2022/06/11 00:45:23;;;;;;;24.47;12.70;;;;;;;;;;5093049;28;20830;-72
2022/06/11 00:47:53;;;;;;;26.23;12.83;;;;;;;;;;5093156;28;20477;-73
2022/06/11 00:50:23;;;;;;;25.43;11.40;;;;;;;;;;5093014;28;20445;-72
2022/06/11 00:52:51;;;;;;;27.97;12.80;;;;;;;;;;5092831;28;20485;-72
2022/06/11 00:55:21;;;;;;;24.73;12.17;;;;;;;;;;5092951;28;20439;-72
2022/06/11 00:57:51;;;;;;;27.00;12.00;;;;;;;;;;5092914;28;20513;-72
2022/06/11 01:00:20;;;;;;;25.37;11.30;;;;;;;;;;5092846;28;20438;-72
2022/06/11 01:02:49;;;;;;;28.67;13.90;;;;;;;;;;5092840;28;20453;-73
2022/06/11 01:05:19;;;;;;;26.20;13.37;;;;;;;;;;5092461;28;20441;-73
2022/06/11 01:08:08;;;;;;;26.33;12.90;;;;;;;;;;5092614;28;20457;-73
2022/06/11 01:10:47;;;;;;;30.50;13.83;;;;;;;;;;5086989;28;20534;-73
2022/06/11 01:13:20;;;;;;;26.43;12.13;;;;;;;;;;5092261;28;20484;-73
2022/06/11 01:15:48;;;;;;;28.07;13.70;;;;;;;;;;5092799;28;20519;-73
2022/06/11 01:18:24;;;;;;;30.87;13.50;;;;;;;;;;5092462;28;20989;-72
2022/06/11 01:20:56;;;;;;;27.53;13.37;;;;;;;;;;5092596;28;20485;-73
2022/06/11 01:23:45;;;;;;;29.70;13.40;;;;;;;;;;5092283;28;20963;-73
2022/06/11 01:26:34;;;;;;;26.83;13.43;;;;;;;;;;5092333;28;20473;-73
2022/06/11 01:29:07;;;;;;;29.27;13.80;;;;;;;;;;5085969;28;20450;-73
2022/06/11 01:31:39;;;;;;;28.93;13.50;;;;;;;;;;5092262;28;20864;-72
2022/06/11 01:34:22;;;;;;;29.23;13.07;;;;;;;;;;5092208;28;20966;-73
2022/06/11 01:36:52;;;;;;;27.80;12.50;;;;;;;;;;5092197;28;20453;-73
2022/06/11 01:39:22;;;;;;;26.47;12.37;;;;;;;;;;5092030;28;20443;-72
2022/06/11 01:41:52;;;;;;;25.00;12.23;;;;;;;;;;5092108;28;20442;-73
2022/06/11 01:44:22;;;;;;;29.00;12.20;;;;;;;;;;5092147;28;20434;-72
2022/06/11 01:46:52;;;;;;;26.37;13.00;;;;;;;;;;5092110;28;20440;-73
2022/06/11 01:49:37;;;;;;;26.87;12.03;;;;;;;;;;5091970;28;20434;-72
2022/06/11 01:52:08;;;;;;;34.20;13.47;;;;;;;;;;5091065;28;20492;-72
2022/06/11 01:54:40;;;;;;;26.77;12.40;;;;;;;;;;5091897;28;20438;-72
2022/06/11 01:57:22;;;;;;;27.90;13.10;;;;;;;;;;5091461;28;20454;-72
2022/06/11 01:59:57;;;;;;;28.03;12.80;;;;;;;;;;5091687;28;20438;-72
2022/06/11 02:02:32;;;;;;;28.90;13.87;;;;;;;;;;5091828;28;21131;-72
2022/06/11 02:05:04;;;;;;;31.87;14.37;;;;;;;;;;5091684;28;20966;-72
2022/06/11 02:07:34;;;;;;;27.80;12.63;;;;;;;;;;5091727;28;20811;-72
2022/06/11 02:10:05;;;;;;;36.13;13.93;;;;;;;;;;5091843;28;20430;-72
2022/06/11 02:12:39;;;;;;;33.70;12.77;;;;;;;;;;5091644;28;20481;-73
2022/06/11 02:15:08;;;;;;;32.77;13.87;;;;;;;;;;5091173;28;20441;-72
2022/06/11 02:17:39;;;;;;;42.03;12.87;;;;;;;;;;5091503;28;20801;-72
2022/06/11 02:20:10;;;;;;;31.03;13.73;;;;;;;;;;5091348;28;20448;-72
2022/06/11 02:22:42;;;;;;;27.50;13.67;;;;;;;;;;5091600;28;20839;-72
2022/06/11 02:25:12;;;;;;;27.80;13.50;;;;;;;;;;5091108;28;20519;-72
2022/06/11 02:27:43;;;;;;;28.10;12.73;;;;;;;;;;5091279;28;20450;-72
2022/06/11 02:30:12;;;;;;;27.67;12.77;;;;;;;;;;5091205;28;20966;-72
2022/06/11 02:32:41;;;;;;;26.43;12.70;;;;;;;;;;5090987;28;21028;-72
2022/06/11 02:35:11;;;;;;;30.80;12.70;;;;;;;;;;5091122;28;20472;-72
2022/06/11 02:37:40;;;;;;;28.23;12.07;;;;;;;;;;5091070;28;20456;-72
2022/06/11 02:40:12;;;;;;;26.87;13.30;;;;;;;;;;5091240;28;20464;-73
2022/06/11 02:42:39;;;;;;;29.40;14.23;;;;;;;;;;5091063;28;20453;-73
2022/06/11 02:45:10;;;;;;;38.37;14.87;;;;;;;;;;5090685;28;20430;-73
2022/06/11 02:47:38;;;;;;;25.80;11.93;;;;;;;;;;5091139;28;20465;-73
2022/06/11 02:50:07;;;;;;;23.57;10.87;;;;;;;;;;5091000;28;20452;-72
2022/06/11 02:52:35;;;;;;;26.23;13.23;;;;;;;;;;5090854;28;20550;-72
2022/06/11 02:55:03;;;;;;;29.07;12.90;;;;;;;;;;5090842;28;20521;-73
2022/06/11 02:57:31;;;;;;;33.03;11.93;;;;;;;;;;5090877;28;21306;-73
2022/06/11 02:59:59;;;;;;;28.23;11.67;;;;;;;;;;5091216;28;20442;-73
2022/06/11 03:02:27;;;;;;;25.57;12.57;;;;;;;;;;5091037;28;20438;-72
2022/06/11 03:04:55;;;;;;;30.60;13.73;;;;;;;;;;5094709;28;20444;-72
2022/06/11 03:07:23;;;;;;;26.63;12.87;;;;;;;;;;5094932;28;20438;-73
2022/06/11 03:09:51;;;;;;;26.30;12.17;;;;;;;;;;5095051;28;20434;-73
2022/06/11 03:12:19;;;;;;;31.13;13.17;;;;;;;;;;5094746;28;20445;-72
2022/06/11 03:14:47;;;;;;;29.00;12.00;;;;;;;;;;5095199;28;20452;-73
2022/06/11 03:17:15;;;;;;;28.90;12.07;;;;;;;;;;5094655;28;20439;-73
2022/06/11 03:19:44;;;;;;;28.60;14.10;;;;;;;;;;5094976;28;20446;-73
2022/06/11 03:22:11;;;;;;;28.07;12.50;;;;;;;;;;5094708;28;20445;-73
2022/06/11 03:24:40;;;;;;;28.57;12.27;;;;;;;;;;5094641;28;20959;-73
2022/06/11 03:27:08;;;;;;;26.10;12.07;;;;;;;;;;5094401;28;20943;-72
2022/06/11 03:38:53;;;;;;;32.40;13.47;;;;;;;;;;5094636;28;20437;-73
2022/06/11 03:41:22;;;;;;;26.27;11.77;;;;;;;;;;5094032;28;20453;-72
2022/06/11 03:43:50;;;;;;;26.13;12.07;;;;;;;;;;5094301;28;20445;-72
2022/06/11 03:46:18;;;;;;;24.60;12.23;;;;;;;;;;5094231;28;20442;-73
2022/06/11 03:48:46;;;;;;;28.27;13.23;;;;;;;;;;5093890;28;20465;-73
2022/06/11 03:51:14;;;;;;;26.33;12.97;;;;;;;;;;5094112;28;20449;-72
2022/06/11 03:53:42;;;;;;;31.37;15.03;;;;;;;;;;5093990;28;20477;-73
2022/06/11 03:56:10;;;;;;;29.20;13.70;;;;;;;;;;5093915;28;20464;-73
2022/06/11 03:58:39;;;;;;;24.97;12.47;;;;;;;;;;5093987;28;20535;-73
2022/06/11 04:01:16;;;;;;;30.33;12.97;;;;;;;;;;5093951;28;20442;-73
2022/06/11 04:03:44;;;;;;;32.77;12.67;;;;;;;;;;5093986;28;20452;-72
2022/06/11 04:06:12;;;;;;;30.57;13.87;;;;;;;;;;5093824;28;20477;-72
2022/06/11 04:08:40;;;;;;;30.47;14.90;;;;;;;;;;5094178;28;20438;-73
2022/06/11 04:11:08;;;;;;;35.10;14.73;;;;;;;;;;5093508;28;20450;-72
2022/06/11 04:20:04;;;;;;;24.53;12.07;;;;;;;;;;5093866;28;20445;-73
2022/06/11 04:22:32;;;;;;;28.17;13.97;;;;;;;;;;5093640;28;20457;-72
2022/06/11 04:24:59;;;;;;;29.97;13.37;;;;;;;;;;5093510;28;20446;-72
2022/06/11 04:27:27;;;;;;;27.00;13.97;;;;;;;;;;5093457;28;20448;-72
2022/06/11 04:29:55;;;;;;;25.73;13.70;;;;;;;;;;5093449;28;20442;-73
2022/06/11 04:32:24;;;;;;;26.40;12.63;;;;;;;;;;5093480;28;20456;-72
2022/06/11 04:34:52;;;;;;;35.10;12.50;;;;;;;;;;5093005;28;20442;-73
2022/06/11 04:37:23;;;;;;;32.77;13.73;;;;;;;;;;5079134;28;20448;-72
2022/06/11 04:39:51;;;;;;;34.83;13.43;;;;;;;;;;5079446;28;20448;-75
2022/06/11 04:42:20;;;;;;;34.70;13.53;;;;;;;;;;5080788;28;20449;-74
2022/06/11 04:44:48;;;;;;;33.53;14.67;;;;;;;;;;5082104;28;20439;-75
2022/06/11 04:47:17;;;;;;;26.30;13.07;;;;;;;;;;5081147;28;20466;-75
2022/06/11 04:49:45;;;;;;;29.30;13.90;;;;;;;;;;5084127;28;20435;-74
2022/06/11 04:52:12;;;;;;;28.20;14.97;;;;;;;;;;5081679;28;20978;-75
2022/06/11 04:54:43;;;;;;;27.63;14.43;;;;;;;;;;5083185;28;20844;-75
2022/06/11 04:57:11;;;;;;;30.60;13.90;;;;;;;;;;5087878;28;20845;-73
2022/06/11 04:59:38;;;;;;;30.03;14.73;;;;;;;;;;5088748;28;20481;-72
2022/06/11 05:02:06;;;;;;;28.47;13.83;;;;;;;;;;5085089;28;20492;-74
2022/06/11 05:04:34;;;;;;;27.80;13.97;;;;;;;;;;5083896;28;20477;-72
2022/06/11 05:07:02;;;;;;;32.00;15.40;;;;;;;;;;5080584;28;20509;-72
2022/06/11 05:09:30;;;;;;;28.80;13.80;;;;;;;;;;5079446;28;20515;-73
2022/06/11 05:12:00;;;;;;;34.70;15.50;;;;;;;;;;5079108;28;20470;-73
2022/06/11 05:14:28;;;;;;;29.03;14.50;;;;;;;;;;5083517;28;20502;-72
2022/06/11 05:16:56;;;;;;;32.07;15.90;;;;;;;;;;5086645;28;20474;-73
2022/06/11 05:19:24;;;;;;;31.87;15.70;;;;;;;;;;5075349;28;20469;-73
2022/06/11 05:21:52;;;;;;;29.37;15.00;;;;;;;;;;5078357;28;21187;-73
2022/06/11 05:24:20;;;;;;;40.77;14.70;;;;;;;;;;5083747;28;20479;-73
2022/06/11 05:26:49;;;;;;;29.67;14.00;;;;;;;;;;5082340;28;20470;-73
2022/06/11 05:29:23;;;;;;;33.07;15.27;;;;;;;;;;5086246;28;20553;-74
2022/06/11 05:31:50;;;;;;;39.50;14.73;;;;;;;;;;5081969;28;20469;-73
2022/06/11 05:34:18;;;;;;;34.03;14.13;;;;;;;;;;5079811;28;20498;-72
2022/06/11 05:36:46;;;;;;;31.57;14.40;;;;;;;;;;5082949;28;20462;-72
2022/06/11 05:39:13;;;;;;;27.10;13.13;;;;;;;;;;5091471;28;20462;-74
2022/06/11 05:41:41;;;;;;;29.03;14.80;;;;;;;;;;5070729;28;20471;-70
2022/06/11 05:44:09;;;;;;;35.93;15.27;;;;;;;;;;5071177;28;20473;-70
2022/06/11 05:46:38;;;;;;;32.03;14.17;;;;;;;;;;5071072;28;20553;-71
2022/06/11 05:49:08;;;;;;;32.03;15.10;;;;;;;;;;5070380;28;20562;-71
2022/06/11 05:51:37;;;;;;;28.03;15.43;;;;;;;;;;5075364;28;20485;-71
2022/06/11 05:54:07;;;;;;;32.83;15.50;;;;;;;;;;5074580;28;20589;-71
2022/06/11 05:56:34;;;;;;;29.40;14.33;;;;;;;;;;5083290;28;20492;-70
2022/06/11 05:59:04;;;;;;;30.60;14.60;;;;;;;;;;5079052;28;21030;-73
2022/06/11 06:01:37;;;;;;;33.97;15.13;;;;;;;;;;5077721;28;20462;-69
2022/06/11 06:04:06;;;;;;;31.03;15.53;;;;;;;;;;5076396;28;20490;-72
2022/06/11 06:06:34;;;;;;;30.17;16.07;;;;;;;;;;5076375;28;21063;-71
2022/06/11 06:09:01;;;;;;;35.90;16.03;;;;;;;;;;5082490;28;20487;-72
2022/06/11 06:11:29;;;;;;;34.80;17.33;;;;;;;;;;5083071;28;20470;-70
2022/06/11 06:13:56;;;;;;;33.47;15.80;;;;;;;;;;5080934;28;20500;-71
2022/06/11 06:16:25;;;;;;;30.87;16.47;;;;;;;;;;5078174;28;20473;-71
2022/06/11 06:18:52;;;;;;;29.57;14.50;;;;;;;;;;5077234;28;20483;-71
2022/06/11 06:21:23;;;;;;;32.20;16.40;;;;;;;;;;5090833;28;20675;-71
2022/06/11 06:23:51;;;;;;;34.47;15.83;;;;;;;;;;5090225;28;20502;-69
2022/06/11 06:26:19;;;;;;;31.83;16.07;;;;;;;;;;5087814;28;21013;-71
2022/06/11 06:28:46;;;;;;;31.53;15.87;;;;;;;;;;5083228;28;20481;-70
2022/06/11 06:31:15;;;;;;;30.60;15.37;;;;;;;;;;5080034;28;20469;-70
2022/06/11 06:33:42;;;;;;;31.60;16.97;;;;;;;;;;5080962;28;20910;-73
2022/06/11 06:36:12;;;;;;;32.60;15.40;;;;;;;;;;5078855;28;20474;-70
2022/06/11 06:38:42;;;;;;;31.93;15.50;;;;;;;;;;5078854;28;20470;-70
2022/06/11 06:41:09;;;;;;;43.23;18.03;;;;;;;;;;5083499;28;20470;-71
2022/06/11 06:43:37;;;;;;;38.17;17.30;;;;;;;;;;5080063;28;21039;-70
2022/06/11 06:46:05;;;;;;;36.17;18.60;;;;;;;;;;5078702;28;20467;-70
2022/06/11 06:48:32;;;;;;;37.90;16.10;;;;;;;;;;5086553;28;20564;-71
2022/06/11 06:51:00;;;;;;;44.20;20.30;;;;;;;;;;5070612;28;20486;-74
2022/06/11 06:53:28;;;;;;;38.30;16.50;;;;;;;;;;5070286;28;21038;-75
2022/06/11 06:55:58;;;;;;;36.80;17.63;;;;;;;;;;5070303;28;20467;-71
2022/06/11 06:58:25;;;;;;;32.33;16.87;;;;;;;;;;5069837;28;20506;-70
2022/06/11 07:00:55;;;;;;;38.57;16.30;;;;;;;;;;5071201;28;21028;-70
2022/06/11 07:03:23;;;;;;;32.50;16.13;;;;;;;;;;5072289;28;20486;-72
2022/06/11 07:05:50;;;;;;;34.10;16.50;;;;;;;;;;5070259;28;20459;-70
2022/06/11 07:08:18;;;;;;;35.00;17.23;;;;;;;;;;5069994;28;20581;-69
2022/06/11 07:10:47;;;;;;;31.97;15.83;;;;;;;;;;5069903;28;20467;-69
2022/06/11 07:13:18;;;;;;;42.33;18.50;;;;;;;;;;5069536;28;20619;-71
2022/06/11 07:15:47;;;;;;;35.67;15.90;;;;;;;;;;5069812;28;20470;-71
2022/06/11 07:18:16;;;;;;;34.50;16.70;;;;;;;;;;5069404;28;20482;-70
2022/06/11 07:20:46;;;;;;;32.17;15.77;;;;;;;;;;5086751;28;20478;-70
2022/06/11 07:23:17;;;;;;;34.47;15.40;;;;;;;;;;5089868;28;21040;-70
2022/06/11 07:25:46;;;;;;;31.83;16.13;;;;;;;;;;5089910;28;20470;-70
2022/06/11 07:28:17;;;;;;;30.83;15.10;;;;;;;;;;5090207;28;20480;-71
2022/06/11 07:30:47;;;;;;;27.30;14.40;;;;;;;;;;5090018;28;21005;-72
2022/06/11 07:33:16;;;;;;;33.63;16.80;;;;;;;;;;5089196;28;20516;-71
2022/06/11 07:35:43;;;;;;;35.90;13.23;;;;;;;;;;5089727;28;20500;-71
2022/06/11 07:38:12;;;;;;;26.93;13.43;;;;;;;;;;5089999;28;20864;-71
2022/06/11 07:40:40;;;;;;;28.20;14.90;;;;;;;;;;5090095;28;21009;-71
2022/06/11 07:43:08;;;;;;;30.00;13.57;;;;;;;;;;5089510;28;20474;-70
2022/06/11 07:45:36;;;;;;;28.30;15.57;;;;;;;;;;5090299;28;20457;-72
2022/06/11 07:48:05;;;;;;;35.33;14.50;;;;;;;;;;5079132;28;20473;-70
2022/06/11 07:50:34;;;;;;;27.20;13.83;;;;;;;;;;5080922;28;20466;-70
2022/06/11 07:53:02;;;;;;;30.60;14.70;;;;;;;;;;5082280;28;20470;-70
2022/06/11 07:55:30;;;;;;;29.90;14.10;;;;;;;;;;5084136;28;20497;-71
2022/06/11 07:57:58;;;;;;;26.00;13.07;;;;;;;;;;5093184;28;20488;-70
2022/06/11 08:00:26;;;;;;;28.67;13.10;;;;;;;;;;5093680;28;20476;-74
2022/06/11 08:02:54;;;;;;;27.20;13.37;;;;;;;;;;5092780;28;20480;-72
2022/06/11 08:05:23;;;;;;;28.70;13.37;;;;;;;;;;5093279;28;20982;-71
2022/06/11 08:07:52;;;;;;;28.87;13.83;;;;;;;;;;5093143;28;20478;-71
2022/06/11 08:10:20;;;;;;;30.90;14.67;;;;;;;;;;5093306;28;20473;-71
2022/06/11 08:12:48;;;;;;;29.30;14.37;;;;;;;;;;5093096;28;21196;-73
2022/06/11 08:15:15;;;;;;;24.97;12.90;;;;;;;;;;5093092;28;20493;-71
2022/06/11 08:17:43;;;;;;;28.33;12.40;;;;;;;;;;5092596;28;20474;-74
2022/06/11 08:20:13;;;;;;;28.00;14.07;;;;;;;;;;5080582;28;20601;-71
2022/06/11 08:22:43;;;;;;;28.83;11.93;;;;;;;;;;5072337;28;21026;-73
2022/06/11 08:25:10;;;;;;;26.17;13.13;;;;;;;;;;5070955;28;20544;-72
2022/06/11 08:27:38;;;;;;;28.13;12.90;;;;;;;;;;5072161;28;20478;-70
2022/06/11 08:30:06;;;;;;;25.70;12.20;;;;;;;;;;5072947;28;20497;-70
2022/06/11 08:32:34;;;;;;;29.80;13.00;;;;;;;;;;5072190;28;20467;-71
2022/06/11 08:35:01;;;;;;;27.33;13.10;;;;;;;;;;5072113;28;20498;-71
2022/06/11 08:37:28;;;;;;;26.67;13.00;;;;;;;;;;5072407;28;20487;-72
2022/06/11 08:39:58;;;;;;;32.63;15.20;;;;;;;;;;5072580;28;20478;-70
2022/06/11 08:42:30;;;;;;;27.07;13.50;;;;;;;;;;5072408;28;21034;-71
2022/06/11 08:44:58;;;;;;;28.40;15.20;;;;;;;;;;5072327;28;20481;-69
2022/06/11 08:47:38;;;;;;;32.60;14.07;;;;;;;;;;5071399;28;20479;-70
2022/06/11 08:50:06;;;;;;;26.73;13.07;;;;;;;;;;5084488;28;20896;-70
2022/06/11 08:52:33;;;;;;;35.40;14.47;;;;;;;;;;5092724;28;20474;-70
2022/06/11 08:55:03;;;;;;;25.33;13.23;;;;;;;;;;5092150;28;20494;-70
2022/06/11 08:57:37;;;;;;;28.67;13.57;;;;;;;;;;5092148;28;20493;-70
2022/06/11 09:00:07;;;;;;;27.00;13.00;;;;;;;;;;5092413;28;20466;-70
2022/06/11 09:03:05;;;;;;;26.17;14.07;;;;;;;;;;5091564;28;20562;-71
2022/06/11 09:05:52;;;;;;;30.27;14.90;;;;;;;;;;5091989;28;20458;-71
2022/06/11 09:08:26;;;;;;;32.57;15.70;;;;;;;;;;5091984;28;21021;-72
2022/06/11 09:11:07;;;;;;;25.47;13.37;;;;;;;;;;5092517;28;20493;-72
2022/06/11 09:13:52;;;;;;;29.93;15.37;;;;;;;;;;5092152;28;20477;-72
2022/06/11 09:16:25;;;;;;;32.40;14.13;;;;;;;;;;5091380;28;20466;-72
2022/06/11 09:19:08;;;;;;;26.90;14.03;;;;;;;;;;5090041;28;20471;-71
2022/06/11 09:21:43;;;;;;;27.90;13.63;;;;;;;;;;5077778;28;20497;-71
2022/06/11 09:24:23;;;;;;;27.50;12.30;;;;;;;;;;5078026;28;20527;-75
2022/06/11 09:26:56;;;;;;;33.33;14.27;;;;;;;;;;5078247;28;20860;-73
2022/06/11 09:29:28;;;;;;;28.10;14.67;;;;;;;;;;5078726;28;20476;-74
2022/06/11 09:32:01;;;;;;;26.47;13.67;;;;;;;;;;5080825;28;20490;-72
2022/06/11 09:34:31;;;;;;;33.43;15.90;;;;;;;;;;5082530;28;20486;-72
2022/06/11 09:37:03;;;;;;;32.53;14.20;;;;;;;;;;5085886;28;20476;-73
2022/06/11 09:39:36;;;;;;;28.93;13.80;;;;;;;;;;5091312;28;20473;-72
2022/06/11 09:42:13;;;;;;;29.57;13.40;;;;;;;;;;5091433;28;20490;-73
2022/06/11 09:44:42;;;;;;;30.40;15.60;;;;;;;;;;5091627;28;20470;-73
2022/06/11 09:47:18;;;;;;;31.67;15.93;;;;;;;;;;5072422;28;20498;-71
2022/06/11 09:49:51;;;;;;;30.40;16.17;;;;;;;;;;5070910;28;20559;-73
2022/06/11 09:52:23;;;;;;;29.77;16.63;;;;;;;;;;5072392;28;21003;-71
2022/06/11 09:54:53;;;;;;;31.30;15.90;;;;;;;;;;5081721;28;20495;-70
2022/06/11 09:57:35;;;;;;;30.10;15.73;;;;;;;;;;5075555;28;20601;-71
2022/06/11 10:00:07;;;;;;;30.07;14.90;;;;;;;;;;5070998;28;20462;-70
2022/06/11 10:02:37;;;;;;;28.50;14.93;;;;;;;;;;5075810;28;20587;-71
2022/06/11 10:05:07;;;;;;;32.67;15.07;;;;;;;;;;5077588;28;20482;-71
2022/06/11 10:07:38;;;;;;;32.50;15.57;;;;;;;;;;5073092;28;20495;-71
2022/06/11 10:10:07;;;;;;;32.00;17.10;;;;;;;;;;5073293;28;20476;-72
2022/06/11 10:12:38;;;;;;;34.40;16.27;;;;;;;;;;5072799;28;20485;-70
2022/06/11 10:15:08;;;;;;;32.77;17.67;;;;;;;;;;5072784;28;20558;-70
2022/06/11 10:17:39;;;;;;;32.93;16.70;;;;;;;;;;5071205;28;20479;-69
2022/06/11 10:20:10;;;;;;;30.07;15.93;;;;;;;;;;5080297;28;20473;-70
2022/06/11 10:22:43;;;;;;;31.93;15.00;;;;;;;;;;5079186;28;21114;-70
2022/06/11 10:25:17;;;;;;;30.20;15.60;;;;;;;;;;5079614;28;20504;-74
2022/06/11 10:27:49;;;;;;;27.57;14.27;;;;;;;;;;5076685;28;20563;-70
2022/06/11 10:30:24;;;;;;;34.67;15.90;;;;;;;;;;5074395;28;20498;-69
2022/06/11 10:32:53;;;;;;;27.90;15.37;;;;;;;;;;5074804;28;21021;-70
2022/06/11 10:35:22;;;;;;;31.10;15.63;;;;;;;;;;5076292;28;20504;-69
2022/06/11 10:37:54;;;;;;;32.50;13.50;;;;;;;;;;5078563;28;20480;-70
2022/06/11 10:40:22;;;;;;;28.87;14.60;;;;;;;;;;5078035;28;20475;-70
2022/06/11 10:42:55;;;;;;;29.93;14.90;;;;;;;;;;5077979;28;20501;-70
2022/06/11 10:45:23;;;;;;;29.00;15.80;;;;;;;;;;5078513;28;20481;-70
2022/06/11 10:47:52;;;;;;;30.70;15.20;;;;;;;;;;5075921;28;20518;-70
2022/06/11 10:50:22;;;;;;;28.67;13.43;;;;;;;;;;5077656;28;20880;-69
2022/06/11 10:52:53;;;;;;;28.97;16.20;;;;;;;;;;5078341;28;20475;-70
2022/06/11 10:55:24;;;;;;;28.37;15.00;;;;;;;;;;5073259;28;20497;-70
2022/06/11 10:57:54;;;;;;;28.33;15.63;;;;;;;;;;5076967;28;20498;-70
2022/06/11 11:00:23;;;;;;;28.67;15.40;;;;;;;;;;5078566;28;20528;-71
2022/06/11 11:02:53;;;;;;;30.20;15.60;;;;;;;;;;5075998;28;20500;-70
2022/06/11 11:05:21;;;;;;;27.43;14.77;;;;;;;;;;5076309;28;21264;-70
2022/06/11 11:07:53;;;;;;;29.80;14.60;;;;;;;;;;5075017;28;20477;-71
2022/06/11 11:10:23;;;;;;;32.10;15.70;;;;;;;;;;5072582;28;20530;-72
2022/06/11 11:12:51;;;;;;;30.17;15.10;;;;;;;;;;5079855;28;20474;-71
2022/06/11 11:15:21;;;;;;;29.10;14.97;;;;;;;;;;5077996;28;20489;-71
2022/06/11 11:17:51;;;;;;;32.40;17.70;;;;;;;;;;5079224;28;20474;-70
2022/06/11 11:20:38;;;;;;;30.97;14.60;;;;;;;;;;5069985;28;21010;-71
2022/06/11 11:23:14;;;;;;;29.90;14.10;;;;;;;;;;5071109;28;20529;-71
2022/06/11 11:25:42;;;;;;;29.63;14.13;;;;;;;;;;5077223;28;20460;-71
2022/06/11 11:28:17;;;;;;;29.93;15.67;;;;;;;;;;5079028;28;20495;-71
2022/06/11 11:30:47;;;;;;;33.33;15.60;;;;;;;;;;5078774;28;20469;-73
2022/06/11 11:33:23;;;;;;;29.90;14.30;;;;;;;;;;5089526;28;20490;-73
2022/06/11 11:35:59;;;;;;;26.27;14.60;;;;;;;;;;5072630;28;20500;-73
2022/06/11 11:38:27;;;;;;;33.67;15.03;;;;;;;;;;5085709;28;20492;-74
2022/06/11 11:40:57;;;;;;;27.27;14.37;;;;;;;;;;5083538;28;20478;-73
2022/06/11 11:43:25;;;;;;;27.60;13.90;;;;;;;;;;5082104;28;20508;-72
2022/06/11 11:46:00;;;;;;;31.43;15.27;;;;;;;;;;5079560;28;20464;-72
2022/06/11 11:48:30;;;;;;;28.73;14.40;;;;;;;;;;5080835;28;20478;-72
2022/06/11 11:50:58;;;;;;;27.57;15.07;;;;;;;;;;5075602;28;20474;-75
2022/06/11 11:53:28;;;;;;;26.70;14.37;;;;;;;;;;5081803;28;20472;-72
2022/06/11 11:55:58;;;;;;;30.90;16.17;;;;;;;;;;5076391;28;20499;-71
2022/06/11 11:58:29;;;;;;;31.03;16.00;;;;;;;;;;5087177;28;20480;-71
2022/06/11 12:01:06;;;;;;;31.73;15.47;;;;;;;;;;5078757;28;20464;-71
2022/06/11 12:03:36;;;;;;;31.90;16.23;;;;;;;;;;5081247;28;20476;-71
2022/06/11 12:06:05;;;;;;;32.20;16.43;;;;;;;;;;5081452;28;21049;-71
2022/06/11 12:08:33;;;;;;;34.40;16.20;;;;;;;;;;5074251;28;20479;-71
2022/06/11 12:11:01;;;;;;;30.97;16.40;;;;;;;;;;5082634;28;20476;-72
2022/06/11 12:13:30;;;;;;;32.73;16.20;;;;;;;;;;5083248;28;21063;-71
2022/06/11 12:16:01;;;;;;;27.87;15.30;;;;;;;;;;5082315;28;20495;-72
2022/06/11 12:18:35;;;;;;;30.17;16.73;;;;;;;;;;5078854;28;20472;-71
2022/06/11 12:21:05;;;;;;;33.63;16.10;;;;;;;;;;5078251;28;20468;-72
2022/06/11 12:23:35;;;;;;;32.00;16.23;;;;;;;;;;5078885;28;20473;-72
2022/06/11 12:26:05;;;;;;;30.17;15.87;;;;;;;;;;5082233;28;20465;-73
2022/06/11 12:28:34;;;;;;;37.93;16.37;;;;;;;;;;5090605;28;20486;-72
2022/06/11 12:31:04;;;;;;;32.80;15.90;;;;;;;;;;5081592;28;20467;-71
2022/06/11 12:33:31;;;;;;;29.73;16.03;;;;;;;;;;5070484;28;20478;-71
2022/06/11 12:36:02;;;;;;;31.33;15.60;;;;;;;;;;5071445;28;20497;-71
2022/06/11 12:38:37;;;;;;;29.27;15.10;;;;;;;;;;5072598;28;20534;-71
2022/06/11 12:41:19;;;;;;;27.43;13.37;;;;;;;;;;5072402;28;20467;-72
2022/06/11 12:43:50;;;;;;;29.83;15.63;;;;;;;;;;5080161;28;20479;-71
2022/06/11 12:46:23;;;;;;;28.90;15.30;;;;;;;;;;5081198;28;21016;-72
2022/06/11 12:48:52;;;;;;;36.53;16.00;;;;;;;;;;5080394;28;20463;-71
2022/06/11 12:51:24;;;;;;;29.83;15.07;;;;;;;;;;5081391;28;20506;-71
2022/06/11 12:53:56;;;;;;;28.93;15.37;;;;;;;;;;5072235;28;20572;-71
2022/06/11 12:56:30;;;;;;;27.83;14.07;;;;;;;;;;5072373;28;20510;-71
2022/06/11 12:59:09;;;;;;;29.63;15.33;;;;;;;;;;5071583;28;20491;-72
2022/06/11 13:01:43;;;;;;;35.20;18.60;;;;;;;;;;5070351;28;20558;-75
2022/06/11 13:04:28;;;;;;;29.20;15.80;;;;;;;;;;5072752;28;20510;-73
2022/06/11 13:07:03;;;;;;;29.47;15.67;;;;;;;;;;5062484;28;20828;-72
2022/06/11 13:09:35;;;;;;;32.83;17.20;;;;;;;;;;5072049;28;21209;-72
2022/06/11 13:12:09;;;;;;;27.57;15.13;;;;;;;;;;5072489;28;20454;-72
2022/06/11 13:14:59;;;;;;;32.90;15.80;;;;;;;;;;5071749;28;20444;-73
2022/06/11 13:17:33;;;;;;;29.13;15.17;;;;;;;;;;5070223;28;20482;-73
2022/06/11 13:20:04;;;;;;;31.27;17.00;;;;;;;;;;5070356;28;20447;-72
2022/06/11 13:22:36;;;;;;;29.77;17.07;;;;;;;;;;5070738;28;20447;-73
2022/06/11 13:25:08;;;;;;;29.37;15.33;;;;;;;;;;5070717;28;20441;-72
2022/06/11 13:27:42;;;;;;;28.27;15.97;;;;;;;;;;5070729;28;20439;-73
2022/06/11 13:30:17;;;;;;;33.20;14.47;;;;;;;;;;5071304;28;20446;-73
2022/06/11 13:32:50;;;;;;;31.57;17.40;;;;;;;;;;5072149;28;20437;-72
2022/06/11 13:35:27;;;;;;;29.90;14.60;;;;;;;;;;5071692;28;20443;-72
2022/06/11 13:37:59;;;;;;;40.10;16.53;;;;;;;;;;5072196;28;20450;-72
2022/06/11 13:40:35;;;;;;;29.07;14.60;;;;;;;;;;5072128;28;20800;-73
2022/06/11 13:43:09;;;;;;;28.37;14.67;;;;;;;;;;5071566;28;20948;-72
2022/06/11 13:45:43;;;;;;;28.60;14.33;;;;;;;;;;5071745;28;20447;-72
2022/06/11 13:48:17;;;;;;;27.20;14.37;;;;;;;;;;5070779;28;20455;-72
2022/06/11 13:50:47;;;;;;;27.93;14.63;;;;;;;;;;5071710;28;20427;-72
2022/06/11 13:56:23;;;;;;;24.73;12.67;;;;;;;;;;5009618;28;20540;-74
2022/06/11 13:59:04;;;;;;;31.87;14.30;;;;;;;;;;5009492;28;20575;-73
2022/06/11 14:01:39;;;;;;;26.30;13.53;;;;;;;;;;5044447;28;20822;-73
2022/06/11 14:04:27;;;;;;;25.63;13.43;;;;;;;;;;5071463;28;20458;-73
2022/06/11 14:06:56;;;;;;;26.20;14.47;;;;;;;;;;5071410;28;20457;-72
2022/06/11 14:12:26;;;;;;;28.50;13.83;;;;;;;;;;5071449;28;20492;-73
2022/06/11 14:15:13;;;;;;;26.63;13.27;;;;;;;;;;5070700;28;21030;-72
2022/06/11 14:17:44;;;;;;;32.03;12.80;;;;;;;;;;5071351;28;20483;-73
2022/06/11 14:20:18;;;;;;;27.50;14.70;;;;;;;;;;5071157;28;20455;-73
2022/06/11 14:22:48;;;;;;;24.00;13.53;;;;;;;;;;5071112;28;20525;-72
2022/06/11 14:25:36;;;;;;;25.20;12.20;;;;;;;;;;5071096;28;20567;-72
2022/06/11 14:28:23;;;;;;;26.07;12.70;;;;;;;;;;5071055;28;20446;-72
2022/06/11 14:31:05;;;;;;;23.23;11.30;;;;;;;;;;5070993;28;20498;-72
2022/06/11 14:33:33;;;;;;;24.30;12.00;;;;;;;;;;5070970;28;20451;-73
2022/06/11 14:36:05;;;;;;;26.50;12.40;;;;;;;;;;5071115;28;20484;-72
2022/06/11 14:38:45;;;;;;;25.67;11.67;;;;;;;;;;5070987;28;21067;-73
2022/06/11 14:41:23;;;;;;;30.53;13.67;;;;;;;;;;5070728;28;20440;-72
2022/06/11 14:44:10;;;;;;;25.40;12.63;;;;;;;;;;5070881;28;20836;-72
2022/06/11 14:46:54;;;;;;;24.33;12.47;;;;;;;;;;5070749;28;20463;-72
2022/06/11 14:49:41;;;;;;;22.83;11.90;;;;;;;;;;5070712;28;20446;-72
2022/06/11 14:52:27;;;;;;;25.10;12.77;;;;;;;;;;5070860;28;20850;-73
2022/06/11 14:55:02;;;;;;;26.37;11.77;;;;;;;;;;5071080;28;20444;-72
2022/06/11 14:57:32;;;;;;;21.93;11.23;;;;;;;;;;5070651;28;20495;-72
2022/06/11 15:00:18;;;;;;;20.57;10.53;;;;;;;;;;5070779;28;20846;-73